Hengelo, Netherlands
Current Conditions -  °F | °C
As of 9:50 AM on Friday 28 Nov 2014 (Local Time) from EDDG Reporting Station
Clear Clear  
Wind Chill: 34°   Ceiling: Unl
Heat Index: 41°   Visibility: 6mi
Dew Point: 36°   Wind: 12mph
Humidity: 81%   Direction: 90°E
Pressure: 29.85"   Gusts: NA
Location:  52.27°N, 6.79°E
Report Text: EDDG 280850Z 09010KT 9000 NSC 05/02 Q1011 NOSIG
Loading
Personal Weather Stations






























Interactive Weather Map New forecast layout! Learn more

10-Day Weather Forecast

Advertisements
Track Severe Weather on mobile